Time;durP1;ratioP1;P1;durP2;ratioP2;P2;SDS_P1;SDS_P2;PMS_P1;PMS_P2;Temp;Humidity;BMP_temperature;BMP_pressure;BME280_temperature;BME280_humidity;BME280_pressure;Samples;Min_cycle;Max_cycle;Signal;HPM_P1;HPM_P2
2022/12/02 00:01:34;;;;;;;5.25;3.10;;;;;;;4.07;61.71;95252.31;4889089;29;20572;-80
2022/12/02 00:04:00;;;;;;;4.88;3.03;;;;;;;4.21;61.72;95265.16;4910433;29;20143;-80
2022/12/02 00:06:28;;;;;;;3.88;2.30;;;;;;;4.20;61.28;95267.09;4918341;29;20035;-81
2022/12/02 00:09:28;;;;;;;3.63;2.33;;;;;;;4.18;61.58;95261.25;4907715;29;20084;-80
2022/12/02 00:11:53;;;;;;;3.55;2.20;;;;;;;4.13;61.76;95252.69;4915400;29;20089;-80
2022/12/02 00:14:24;;;;;;;3.17;2.15;;;;;;;4.19;61.62;95260.13;4918432;29;20043;-82
2022/12/02 00:16:49;;;;;;;3.63;2.17;;;;;;;4.19;61.81;95262.06;4929355;28;20122;-83
2022/12/02 00:19:15;;;;;;;2.78;1.75;;;;;;;4.19;61.66;95262.84;4972390;28;20034;-81
2022/12/02 00:21:40;;;;;;;2.80;1.80;;;;;;;4.17;61.82;95265.16;4955582;28;20485;-80
2022/12/02 00:24:06;;;;;;;4.40;2.50;;;;;;;4.21;61.84;95265.16;4972230;28;20478;-80
2022/12/02 00:26:31;;;;;;;3.20;2.05;;;;;;;4.20;61.79;95266.34;4966712;28;20180;-80
2022/12/02 00:28:57;;;;;;;3.47;1.95;;;;;;;4.24;61.75;95261.66;4969845;28;20035;-81
2022/12/02 00:31:22;;;;;;;3.10;2.28;;;;;;;4.25;61.75;95265.94;4967893;28;20038;-81
2022/12/02 00:33:47;;;;;;;3.85;2.20;;;;;;;4.26;61.93;95265.56;4952620;28;20037;-81
2022/12/02 00:36:13;;;;;;;3.85;2.45;;;;;;;4.24;61.92;95261.66;4983078;28;20078;-82
2022/12/02 00:38:38;;;;;;;3.83;2.50;;;;;;;4.27;62.18;95260.88;4967897;28;20030;-80
2022/12/02 00:41:04;;;;;;;4.03;2.60;;;;;;;4.30;62.08;95259.31;4985397;28;20481;-78
2022/12/02 00:46:31;;;;;;;;;;;;;;;4.27;62.23;95260.88;4987296;28;20053;-83
2022/12/02 00:49:01;;;;;;;5.80;3.42;;;;;;;4.25;62.44;95249.63;4965903;28;19957;-82
2022/12/02 00:51:27;;;;;;;6.18;3.22;;;;;;;4.23;62.01;95251.94;4993777;28;20038;-82
2022/12/02 00:53:52;;;;;;;7.28;3.35;;;;;;;4.24;62.07;95251.56;4942473;28;20033;-82
2022/12/02 00:56:17;;;;;;;5.60;3.03;;;;;;;4.22;62.23;95259.31;4979073;28;20042;-80
2022/12/02 00:58:43;;;;;;;5.85;3.53;;;;;;;4.24;62.26;95258.94;4967467;28;20034;-80
2022/12/02 01:01:08;;;;;;;5.68;3.30;;;;;;;4.19;62.38;95259.34;4967532;28;20026;-81
2022/12/02 01:03:34;;;;;;;5.20;3.17;;;;;;;4.24;62.36;95250.75;4965347;28;20022;-83
2022/12/02 01:05:59;;;;;;;6.75;3.30;;;;;;;4.26;62.24;95248.44;4980726;28;20035;-82
2022/12/02 01:08:26;;;;;;;7.00;3.63;;;;;;;4.31;62.46;95250.00;4956316;28;20033;-83
2022/12/02 01:10:55;;;;;;;5.63;3.25;;;;;;;4.29;62.51;95242.22;4982435;28;20436;-83
2022/12/02 01:13:20;;;;;;;6.70;3.60;;;;;;;4.27;62.19;95239.13;4968210;28;20440;-83
2022/12/02 01:15:46;;;;;;;6.13;3.42;;;;;;;4.28;62.42;95246.09;4983444;28;20038;-83
2022/12/02 01:18:11;;;;;;;6.43;3.72;;;;;;;4.23;62.30;95241.03;4969458;28;20121;-81
2022/12/02 01:20:37;;;;;;;7.00;4.00;;;;;;;4.25;62.50;95244.19;4956990;28;20034;-82
2022/12/02 01:23:02;;;;;;;5.68;3.55;;;;;;;4.31;62.34;95242.63;4952907;28;20033;-82
2022/12/02 01:25:28;;;;;;;6.20;4.18;;;;;;;4.31;62.28;95250.78;5000196;28;20531;-82
2022/12/02 01:27:53;;;;;;;7.82;4.70;;;;;;;4.30;62.36;95243.00;4950039;28;20030;-82
2022/12/02 01:30:18;;;;;;;8.30;4.85;;;;;;;4.34;62.38;95250.00;4968244;28;20030;-81
2022/12/02 01:32:44;;;;;;;7.65;4.75;;;;;;;4.35;62.47;95248.03;4967902;28;20027;-81
2022/12/02 01:35:09;;;;;;;8.25;4.78;;;;;;;4.34;62.46;95250.00;4952960;28;20412;-81
2022/12/02 01:37:35;;;;;;;7.65;5.13;;;;;;;4.36;62.33;95252.31;4952683;28;20026;-81
2022/12/02 01:40:01;;;;;;;7.63;4.47;;;;;;;4.37;62.39;95243.00;4937040;28;20030;-81
2022/12/02 01:42:26;;;;;;;6.22;3.92;;;;;;;4.34;62.27;95249.22;4952918;28;20022;-81
2022/12/02 01:44:52;;;;;;;4.75;3.38;;;;;;;4.35;62.33;95246.09;5000801;28;20026;-81
2022/12/02 01:47:17;;;;;;;5.15;2.85;;;;;;;4.34;62.15;95241.06;4986861;28;20038;-82
2022/12/02 01:49:42;;;;;;;4.97;2.83;;;;;;;4.21;62.50;95246.13;4935552;29;20063;-81
2022/12/02 01:52:08;;;;;;;5.03;2.40;;;;;;;4.29;62.14;95241.44;4956781;28;20406;-81
2022/12/02 01:54:34;;;;;;;4.72;3.08;;;;;;;4.21;62.61;95243.38;4982020;28;20548;-84
2022/12/02 01:56:59;;;;;;;3.65;2.63;;;;;;;4.13;62.65;95244.53;4956192;28;20450;-82
2022/12/02 01:59:25;;;;;;;4.65;2.53;;;;;;;4.10;62.46;95253.47;4973225;28;20401;-83
2022/12/02 02:01:50;;;;;;;3.35;2.35;;;;;;;4.15;62.51;95244.94;4979331;28;20530;-83
2022/12/02 02:04:17;;;;;;;3.83;2.53;;;;;;;4.09;62.86;95241.81;4966889;28;20417;-83
2022/12/02 02:06:44;;;;;;;3.60;2.30;;;;;;;4.12;62.80;95254.63;4964617;28;20089;-82
2022/12/02 02:09:09;;;;;;;4.50;2.60;;;;;;;4.13;62.81;95253.50;4949764;29;20031;-82
2022/12/02 02:11:35;;;;;;;3.80;2.85;;;;;;;4.17;62.83;95256.22;4927215;28;20085;-82
2022/12/02 02:14:02;;;;;;;2.97;2.25;;;;;;;4.16;63.05;95251.94;4949954;28;20094;-81
2022/12/02 02:16:28;;;;;;;3.55;2.42;;;;;;;4.21;62.52;95255.06;4950641;28;20026;-82
2022/12/02 02:18:53;;;;;;;4.15;2.65;;;;;;;4.23;63.06;95258.16;4951180;28;20094;-82
2022/12/02 02:21:21;;;;;;;4.07;2.78;;;;;;;4.23;62.76;95255.44;4969766;28;20030;-82
2022/12/02 02:23:46;;;;;;;4.97;2.65;;;;;;;4.25;62.74;95255.06;4935138;28;20049;-82
2022/12/02 02:26:12;;;;;;;3.63;2.35;;;;;;;4.28;62.72;95257.00;4949975;28;20027;-82
2022/12/02 02:28:37;;;;;;;3.67;2.67;;;;;;;4.34;62.45;95265.56;4968820;28;20506;-82
2022/12/02 02:31:03;;;;;;;5.40;2.78;;;;;;;4.35;62.50;95259.72;4967611;28;20023;-82
2022/12/02 02:33:28;;;;;;;7.68;3.20;;;;;;;4.33;62.29;95270.22;4935776;28;20026;-82
2022/12/02 02:35:54;;;;;;;7.35;2.90;;;;;;;4.29;62.55;95265.94;4933568;29;20095;-82
2022/12/02 02:38:21;;;;;;;9.30;3.58;;;;;;;4.27;62.85;95266.31;4961334;28;20055;-82
2022/12/02 02:40:46;;;;;;;7.07;3.80;;;;;;;4.30;62.88;95272.94;4946799;28;20066;-82
2022/12/02 02:43:12;;;;;;;5.75;3.85;;;;;;;4.28;62.64;95273.31;4965401;28;20035;-82
2022/12/02 02:45:38;;;;;;;8.07;3.75;;;;;;;4.31;62.71;95280.72;4936171;29;20066;-82
2022/12/02 02:48:05;;;;;;;8.23;4.30;;;;;;;4.22;62.88;95269.44;4954818;28;20041;-82
2022/12/02 02:50:31;;;;;;;9.27;4.22;;;;;;;4.25;62.95;95274.13;4957219;28;20163;-82
2022/12/02 02:52:56;;;;;;;9.70;4.32;;;;;;;4.32;62.67;95274.13;4977682;28;20034;-82
2022/12/02 02:55:23;;;;;;;10.68;4.28;;;;;;;4.36;62.72;95276.81;4965380;28;20433;-82
2022/12/02 02:57:49;;;;;;;8.52;4.43;;;;;;;4.36;62.90;95272.19;4952344;28;20043;-82
2022/12/02 03:00:15;;;;;;;5.68;3.40;;;;;;;4.33;62.72;95272.94;4936241;28;20043;-81
2022/12/02 03:02:41;;;;;;;7.03;3.50;;;;;;;4.28;62.83;95280.72;4975273;28;20348;-80
2022/12/02 03:05:06;;;;;;;4.90;2.78;;;;;;;4.30;62.88;95279.19;4969838;28;20046;-83
2022/12/02 03:07:32;;;;;;;6.35;3.67;;;;;;;4.32;62.59;95276.06;4952476;28;20401;-81
2022/12/02 03:09:57;;;;;;;5.43;3.00;;;;;;;4.34;62.83;95271.78;4936227;28;20421;-81
2022/12/02 03:12:23;;;;;;;5.05;3.10;;;;;;;4.36;62.47;95268.66;4945444;28;20105;-81
2022/12/02 03:14:48;;;;;;;5.85;3.70;;;;;;;4.32;62.76;95271.38;4982139;28;20078;-82
2022/12/02 03:17:13;;;;;;;5.63;3.50;;;;;;;4.36;62.61;95274.91;4968362;28;20046;-83
2022/12/02 03:19:39;;;;;;;8.70;4.85;;;;;;;4.41;62.68;95273.72;4941389;28;20510;-83
2022/12/02 03:22:05;;;;;;;7.50;4.15;;;;;;;4.43;62.58;95276.84;4982997;28;20034;-82
2022/12/02 03:24:30;;;;;;;5.35;3.38;;;;;;;4.40;62.42;95281.09;4965273;28;20038;-82
2022/12/02 03:26:56;;;;;;;7.22;3.10;;;;;;;4.42;62.51;95284.22;4982746;28;20050;-82
2022/12/02 03:29:21;;;;;;;6.32;3.80;;;;;;;4.40;62.25;95283.81;4948365;28;20094;-82
2022/12/02 03:31:47;;;;;;;4.82;3.40;;;;;;;4.47;62.31;95291.22;4963999;28;20066;-82
2022/12/02 03:34:12;;;;;;;6.60;3.80;;;;;;;4.46;61.67;95286.94;4951532;28;20043;-81
2022/12/02 03:36:38;;;;;;;5.82;3.38;;;;;;;4.45;61.97;95293.56;4980047;28;20046;-82
2022/12/02 03:39:03;;;;;;;5.25;3.80;;;;;;;4.43;62.22;95290.44;4950169;28;20031;-82
2022/12/02 03:41:29;;;;;;;5.03;3.60;;;;;;;4.45;62.30;95286.16;4961650;28;20036;-83
2022/12/02 03:43:55;;;;;;;5.68;4.28;;;;;;;4.47;62.11;95286.56;4931412;28;20417;-84
2022/12/02 03:46:20;;;;;;;6.72;4.05;;;;;;;4.44;62.05;95284.63;4962607;28;20026;-82
2022/12/02 03:48:46;;;;;;;7.32;4.82;;;;;;;4.45;62.35;95288.09;4976734;28;20038;-83
2022/12/02 03:51:11;;;;;;;9.05;5.38;;;;;;;4.48;62.06;95300.97;4967985;28;20026;-82
2022/12/02 03:53:37;;;;;;;10.00;4.97;;;;;;;4.47;62.33;95299.38;5002864;28;20030;-83
2022/12/02 03:56:03;;;;;;;6.68;4.65;;;;;;;4.50;61.98;95295.91;4983524;28;20041;-82
2022/12/02 03:58:46;;;;;;;9.98;5.22;;;;;;;4.48;62.09;95290.06;4957363;28;20114;-83
2022/12/02 04:01:12;;;;;;;10.55;5.18;;;;;;;4.51;62.34;95286.56;4972203;28;20121;-83
2022/12/02 04:03:37;;;;;;;14.70;6.65;;;;;;;4.48;62.47;95295.50;4950148;28;20128;-83
2022/12/02 04:06:03;;;;;;;12.10;5.55;;;;;;;4.48;62.45;95303.69;5004543;28;20049;-84
2022/12/02 04:08:28;;;;;;;13.35;6.18;;;;;;;4.52;62.37;95299.78;5000915;28;20663;-83
2022/12/02 04:10:54;;;;;;;11.40;5.90;;;;;;;4.51;62.58;95303.66;4960176;28;20393;-83
2022/12/02 04:13:19;;;;;;;9.95;5.45;;;;;;;4.48;62.46;95311.84;4969527;28;20061;-83
2022/12/02 04:15:44;;;;;;;11.25;5.30;;;;;;;4.50;62.64;95306.78;4969356;28;20041;-83
2022/12/02 04:18:10;;;;;;;12.90;5.88;;;;;;;4.53;62.55;95309.53;4986240;28;20033;-82
2022/12/02 04:20:35;;;;;;;14.63;6.78;;;;;;;4.52;62.46;95301.72;5003228;28;20022;-82
2022/12/02 04:23:01;;;;;;;14.77;7.90;;;;;;;4.53;62.32;95312.25;4980698;28;20038;-82
2022/12/02 04:25:26;;;;;;;16.08;8.00;;;;;;;4.56;62.52;95310.69;4986208;28;20022;-83
2022/12/02 04:27:52;;;;;;;15.95;7.65;;;;;;;4.55;62.72;95309.13;4950741;28;20034;-83
2022/12/02 04:30:17;;;;;;;19.83;9.25;;;;;;;4.50;62.51;95310.28;4985618;28;20033;-83
2022/12/02 04:32:43;;;;;;;16.45;7.32;;;;;;;4.57;62.32;95312.22;4987672;28;20030;-82
2022/12/02 04:35:08;;;;;;;12.23;7.20;;;;;;;4.52;62.54;95307.16;4982017;28;20405;-82
2022/12/02 04:37:33;;;;;;;13.07;6.75;;;;;;;4.53;62.71;95309.53;4983294;28;20034;-81
2022/12/02 04:39:59;;;;;;;14.43;7.65;;;;;;;4.50;62.57;95306.78;4979970;28;20033;-81
2022/12/02 04:42:24;;;;;;;14.32;8.07;;;;;;;4.53;62.99;95306.78;4962212;28;20062;-83
2022/12/02 04:44:50;;;;;;;13.40;7.80;;;;;;;4.51;62.98;95308.34;4984646;28;20034;-82
2022/12/02 04:47:16;;;;;;;14.50;7.93;;;;;;;4.51;62.73;95300.94;4968707;28;20061;-83
2022/12/02 04:49:41;;;;;;;13.63;7.35;;;;;;;4.51;62.82;95316.50;4984960;28;20428;-81
2022/12/02 04:52:07;;;;;;;9.82;6.18;;;;;;;4.41;62.86;95301.72;4985665;28;20090;-81
2022/12/02 04:54:32;;;;;;;10.95;6.72;;;;;;;4.47;62.87;95316.53;4987214;28;20088;-82
2022/12/02 04:56:57;;;;;;;8.20;5.57;;;;;;;4.48;62.90;95315.34;4957233;28;20033;-83
2022/12/02 04:59:23;;;;;;;13.20;7.15;;;;;;;4.51;62.79;95317.28;4962191;28;20027;-83
2022/12/02 05:01:48;;;;;;;12.90;8.45;;;;;;;4.49;63.08;95322.34;4965357;28;20026;-79
2022/12/02 05:04:14;;;;;;;11.50;7.35;;;;;;;4.54;62.95;95323.91;4984024;28;20061;-79
2022/12/02 05:06:39;;;;;;;9.98;7.18;;;;;;;4.50;62.89;95320.41;4984495;28;20031;-79
2022/12/02 05:09:05;;;;;;;9.48;6.25;;;;;;;4.51;62.84;95320.00;4980926;28;20061;-78
2022/12/02 05:11:30;;;;;;;10.02;6.38;;;;;;;4.53;62.81;95320.41;4993004;28;20499;-79
2022/12/02 05:13:56;;;;;;;11.05;6.57;;;;;;;4.52;62.71;95327.00;4971473;28;20034;-80
2022/12/02 05:16:21;;;;;;;8.80;6.03;;;;;;;4.51;62.81;95322.72;4978755;28;20026;-78
2022/12/02 05:18:47;;;;;;;8.40;6.20;;;;;;;4.56;62.93;95326.25;4995176;28;22528;-77
2022/12/02 05:21:12;;;;;;;9.82;6.65;;;;;;;4.58;63.02;95324.66;5004287;28;20033;-81
2022/12/02 05:23:38;;;;;;;11.32;6.90;;;;;;;4.60;62.92;95330.53;4986760;28;20045;-81
2022/12/02 05:26:03;;;;;;;14.07;6.60;;;;;;;4.54;62.68;95321.19;4970246;28;20029;-80
2022/12/02 05:28:29;;;;;;;12.38;6.82;;;;;;;4.55;62.63;95333.63;4970151;28;20027;-79
2022/12/02 05:30:54;;;;;;;13.32;6.43;;;;;;;4.45;63.18;95331.66;4996220;28;20031;-81
2022/12/02 05:33:20;;;;;;;16.30;7.45;;;;;;;4.46;63.57;95333.22;4982527;28;20038;-81
2022/12/02 05:35:45;;;;;;;16.73;7.93;;;;;;;4.46;63.67;95327.78;4980171;28;20034;-81
2022/12/02 05:38:11;;;;;;;15.93;7.95;;;;;;;4.43;63.83;95337.50;4937490;28;20048;-81
2022/12/02 05:40:36;;;;;;;16.75;7.80;;;;;;;4.45;63.80;95334.38;4952529;28;20037;-81
2022/12/02 05:43:16;;;;;;;18.60;8.63;;;;;;;4.46;63.63;95341.38;4955152;28;20042;-82
2022/12/02 05:45:41;;;;;;;16.75;7.50;;;;;;;4.47;63.69;95337.50;4956949;28;20042;-83
2022/12/02 05:48:11;;;;;;;15.75;8.90;;;;;;;4.51;63.64;95341.78;4940136;28;20412;-82
2022/12/02 05:50:36;;;;;;;18.30;9.52;;;;;;;4.48;63.68;95342.56;4935000;29;20102;-78
2022/12/02 05:53:02;;;;;;;17.20;9.45;;;;;;;4.53;63.81;95347.63;4988451;28;20034;-79
2022/12/02 05:55:28;;;;;;;22.40;10.25;;;;;;;4.54;63.89;95345.69;4957197;28;20065;-79
2022/12/02 05:57:54;;;;;;;18.48;9.23;;;;;;;4.52;63.98;95348.00;4972013;28;20356;-80
2022/12/02 06:00:22;;;;;;;18.02;9.25;;;;;;;4.56;63.99;95356.19;4940639;28;20125;-78
2022/12/02 06:02:52;;;;;;;21.17;9.82;;;;;;;4.57;63.95;95360.47;4968275;28;20598;-79
2022/12/02 06:05:28;;;;;;;18.80;9.70;;;;;;;4.62;63.94;95363.56;4934361;29;20118;-78
2022/12/02 06:08:19;;;;;;;15.23;8.02;;;;;;;4.58;63.99;95362.00;4938613;28;20146;-78
2022/12/02 06:10:50;;;;;;;18.23;9.27;;;;;;;4.64;64.03;95369.41;4936337;28;20030;-79
2022/12/02 06:13:19;;;;;;;20.08;10.00;;;;;;;4.64;63.76;95372.13;4969000;28;20074;-79
2022/12/02 06:15:45;;;;;;;19.63;9.82;;;;;;;4.65;63.51;95375.66;4933694;29;20039;-79
2022/12/02 06:18:14;;;;;;;19.35;11.73;;;;;;;4.73;63.50;95375.25;4952991;28;20597;-78
2022/12/02 06:20:40;;;;;;;21.02;12.70;;;;;;;4.78;63.57;95380.31;4962918;28;20237;-79
2022/12/02 06:23:07;;;;;;;19.40;12.20;;;;;;;4.69;63.52;95373.69;4969683;28;20521;-79
2022/12/02 06:25:33;;;;;;;19.20;13.38;;;;;;;4.73;63.64;95377.97;4952632;28;20030;-81
2022/12/02 06:28:19;;;;;;;21.77;11.98;;;;;;;4.75;63.19;95372.16;4935545;28;20030;-78
2022/12/02 06:30:45;;;;;;;15.00;9.27;;;;;;;4.69;62.36;95384.59;4983058;28;20077;-79
2022/12/02 06:33:23;;;;;;;15.82;8.68;;;;;;;4.74;61.68;95387.72;4934892;28;20066;-79
2022/12/02 06:35:48;;;;;;;14.77;8.68;;;;;;;4.72;61.44;95379.16;4968794;28;20453;-79
2022/12/02 06:38:23;;;;;;;17.63;9.15;;;;;;;4.78;61.21;95383.06;4969411;28;20101;-81
2022/12/02 06:40:49;;;;;;;14.35;9.10;;;;;;;4.84;61.10;95388.88;4950827;28;20027;-80
2022/12/02 06:43:16;;;;;;;13.05;7.63;;;;;;;4.85;61.00;95379.53;4969479;28;20039;-80
2022/12/02 06:45:42;;;;;;;10.65;6.97;;;;;;;4.88;60.21;95381.50;4949791;28;20534;-81
2022/12/02 06:48:31;;;;;;;12.63;7.93;;;;;;;4.94;60.33;95392.78;4929558;28;20042;-82
2022/12/02 06:51:09;;;;;;;15.07;8.82;;;;;;;4.95;60.29;95388.91;4948212;28;20110;-84
2022/12/02 06:53:37;;;;;;;14.80;7.45;;;;;;;4.99;60.16;95390.47;4976229;28;20153;-84
2022/12/02 06:56:15;;;;;;;12.93;6.65;;;;;;;5.02;60.12;95383.44;4951224;28;20050;-85
2022/12/02 06:58:53;;;;;;;11.27;6.68;;;;;;;5.02;60.12;95397.84;4957567;28;20038;-81
2022/12/02 07:01:37;;;;;;;11.30;7.40;;;;;;;4.99;60.29;95400.59;4952033;28;20034;-78
2022/12/02 07:04:03;;;;;;;9.48;6.53;;;;;;;4.93;60.41;95393.94;4969993;28;20122;-82
2022/12/02 07:06:29;;;;;;;9.52;6.60;;;;;;;4.99;60.13;95389.69;4952931;28;20031;-81
2022/12/02 07:08:59;;;;;;;12.05;5.95;;;;;;;5.00;59.93;95394.75;4968245;28;20390;-80
2022/12/02 07:11:50;;;;;;;10.85;7.13;;;;;;;5.03;59.98;95388.50;4952061;28;20030;-82
2022/12/02 07:14:38;;;;;;;10.93;7.20;;;;;;;4.91;59.93;95383.44;4938038;28;20026;-82
2022/12/02 07:17:13;;;;;;;12.90;7.20;;;;;;;4.98;60.14;95399.00;4952834;28;20065;-82
2022/12/02 07:19:40;;;;;;;11.60;7.82;;;;;;;5.02;59.97;95402.50;4952554;28;20628;-82
2022/12/02 07:22:18;;;;;;;14.82;7.63;;;;;;;5.11;60.09;95405.66;4974504;28;20030;-80
2022/12/02 07:24:54;;;;;;;12.38;7.07;;;;;;;5.10;60.22;95398.59;4953484;28;20481;-82
2022/12/02 07:27:28;;;;;;;11.40;7.18;;;;;;;5.09;60.07;95404.47;4951953;28;20033;-81
2022/12/02 07:29:54;;;;;;;10.88;6.55;;;;;;;5.13;59.90;95400.56;4952415;28;20030;-81
2022/12/02 07:32:19;;;;;;;11.55;6.95;;;;;;;5.11;60.40;95407.59;4951408;28;20625;-82
2022/12/02 07:34:45;;;;;;;10.63;5.88;;;;;;;5.19;60.04;95401.72;4968016;28;20023;-82
2022/12/02 07:37:10;;;;;;;9.10;5.75;;;;;;;5.20;59.88;95402.50;4951523;28;20050;-82
2022/12/02 07:39:35;;;;;;;5.78;4.20;;;;;;;5.23;59.70;95416.16;4969731;28;20082;-81
2022/12/02 07:42:02;;;;;;;8.52;4.70;;;;;;;5.22;59.51;95422.78;4985430;28;20037;-80
2022/12/02 07:44:27;;;;;;;10.40;5.35;;;;;;;5.21;59.77;95413.00;4945842;28;20035;-81
2022/12/02 07:46:52;;;;;;;9.48;5.85;;;;;;;5.25;59.76;95415.75;4952178;28;20504;-81
2022/12/02 07:49:18;;;;;;;8.93;5.07;;;;;;;5.28;60.16;95409.53;4968366;28;20370;-81
2022/12/02 07:51:46;;;;;;;9.88;6.68;;;;;;;5.29;60.05;95420.03;4967507;28;20041;-82
2022/12/02 07:54:12;;;;;;;10.75;6.50;;;;;;;5.39;59.79;95425.84;4967194;28;20033;-81
2022/12/02 07:56:37;;;;;;;13.52;8.63;;;;;;;5.37;59.93;95418.06;4967687;28;20034;-81
2022/12/02 07:59:02;;;;;;;15.23;9.18;;;;;;;5.32;59.96;95421.19;4967978;28;20049;-81
2022/12/02 08:01:28;;;;;;;10.90;7.70;;;;;;;5.41;59.83;95418.06;4951340;28;20035;-82
2022/12/02 08:03:53;;;;;;;14.93;7.90;;;;;;;5.43;59.77;95423.91;4982974;28;20086;-82
2022/12/02 08:06:19;;;;;;;10.48;6.97;;;;;;;5.44;59.72;95426.22;4982655;28;20041;-81
2022/12/02 08:08:44;;;;;;;11.45;7.85;;;;;;;5.45;59.89;95427.81;4966869;28;20057;-81
2022/12/02 08:11:10;;;;;;;11.13;6.85;;;;;;;5.51;59.87;95433.66;4967779;28;20022;-81
2022/12/02 08:13:35;;;;;;;13.70;8.98;;;;;;;5.51;59.64;95428.19;4982999;28;20031;-81
2022/12/02 08:16:00;;;;;;;12.15;7.15;;;;;;;5.56;59.79;95427.78;4950083;28;20094;-82
2022/12/02 08:18:26;;;;;;;11.70;8.82;;;;;;;5.57;59.30;95427.41;4968167;28;20031;-82
2022/12/02 08:20:51;;;;;;;16.10;9.50;;;;;;;5.64;59.52;95426.59;4966478;28;20042;-81
2022/12/02 08:23:17;;;;;;;15.38;9.95;;;;;;;5.68;59.44;95432.84;4966701;28;20065;-82
2022/12/02 08:25:43;;;;;;;13.38;9.52;;;;;;;5.68;59.56;95434.75;4982946;28;20058;-81
2022/12/02 08:28:09;;;;;;;16.70;10.20;;;;;;;5.69;59.41;95431.66;4975108;28;20500;-81
2022/12/02 08:30:34;;;;;;;19.67;10.50;;;;;;;5.72;59.89;95433.59;4983237;28;20030;-80
2022/12/02 08:33:00;;;;;;;15.70;10.55;;;;;;;5.72;59.57;95436.31;4950541;28;20109;-81
2022/12/02 08:35:25;;;;;;;17.30;10.93;;;;;;;5.79;59.68;95438.25;4950429;28;20046;-81
2022/12/02 08:37:51;;;;;;;16.40;10.98;;;;;;;5.77;59.50;95443.34;4950221;28;20022;-82
2022/12/02 08:40:16;;;;;;;18.30;10.85;;;;;;;5.81;59.70;95444.09;4950324;28;20042;-80
2022/12/02 08:42:41;;;;;;;17.23;11.45;;;;;;;5.80;59.94;95442.56;4934628;28;20026;-81
2022/12/02 08:45:07;;;;;;;19.77;11.93;;;;;;;5.82;59.93;95445.66;4950541;28;20034;-81
2022/12/02 08:47:33;;;;;;;23.05;11.52;;;;;;;5.84;60.02;95446.03;4934262;28;20035;-82
2022/12/02 08:49:58;;;;;;;19.45;11.38;;;;;;;5.81;60.05;95447.63;4987657;28;20038;-82
2022/12/02 08:52:23;;;;;;;17.08;9.90;;;;;;;5.86;59.92;95444.50;4986813;28;20041;-82
2022/12/02 08:54:49;;;;;;;19.42;11.10;;;;;;;5.92;59.71;95455.81;4985069;28;20101;-81
2022/12/02 08:57:14;;;;;;;18.60;11.73;;;;;;;5.91;60.12;95446.06;4953032;28;20030;-80
2022/12/02 08:59:40;;;;;;;18.88;11.27;;;;;;;5.82;60.14;95438.25;4953277;28;20022;-81
2022/12/02 09:02:05;;;;;;;18.38;11.43;;;;;;;5.97;59.80;95443.72;4969703;28;20026;-82
2022/12/02 09:04:31;;;;;;;20.67;12.00;;;;;;;6.04;59.31;95444.47;4969012;28;20087;-82
2022/12/02 09:06:56;;;;;;;22.52;13.25;;;;;;;6.09;59.47;95446.78;4953349;28;20031;-82
2022/12/02 09:09:22;;;;;;;18.83;11.60;;;;;;;6.15;59.22;95447.16;4952775;28;20035;-81
2022/12/02 09:11:47;;;;;;;22.77;12.35;;;;;;;6.20;58.87;95457.69;4969023;28;20101;-81
2022/12/02 09:14:12;;;;;;;20.08;11.30;;;;;;;6.18;58.90;95442.84;4986812;28;20030;-82
2022/12/02 09:16:38;;;;;;;19.23;11.95;;;;;;;6.20;58.94;95445.97;4968508;28;20333;-82
2022/12/02 09:19:03;;;;;;;20.73;11.55;;;;;;;6.27;58.80;95435.03;5001743;28;20030;-80
2022/12/02 09:21:29;;;;;;;17.63;11.13;;;;;;;6.25;59.05;95432.69;4951799;28;20035;-81
2022/12/02 09:23:54;;;;;;;24.08;13.13;;;;;;;6.29;59.45;95440.84;4984749;28;20029;-82
2022/12/02 09:26:20;;;;;;;22.85;13.63;;;;;;;6.30;59.13;95443.19;4968577;28;20030;-82
2022/12/02 09:28:45;;;;;;;20.30;12.40;;;;;;;6.36;58.81;95438.84;4969257;28;20037;-81
2022/12/02 09:31:11;;;;;;;22.00;13.02;;;;;;;6.40;58.61;95436.13;4953375;28;20041;-82
2022/12/02 09:33:36;;;;;;;21.48;14.05;;;;;;;6.42;58.72;95431.03;4976998;28;20026;-82
2022/12/02 09:36:02;;;;;;;23.33;13.85;;;;;;;6.50;58.50;95432.56;4969017;28;20394;-82
2022/12/02 09:38:30;;;;;;;24.50;12.32;;;;;;;6.49;58.64;95420.09;4968884;28;20646;-82
2022/12/02 09:40:57;;;;;;;21.90;13.57;;;;;;;6.54;58.65;95425.13;4953446;28;20030;-81
2022/12/02 09:43:22;;;;;;;22.48;14.30;;;;;;;6.63;58.50;95438.34;4968829;28;20034;-82
2022/12/02 09:45:48;;;;;;;27.50;15.10;;;;;;;6.67;58.56;95425.44;4969239;28;20061;-82
2022/12/02 09:48:13;;;;;;;25.65;14.10;;;;;;;6.70;58.26;95429.31;4953151;28;20093;-82
2022/12/02 09:50:39;;;;;;;24.35;14.65;;;;;;;6.77;58.54;95429.31;4968705;28;20046;-82
2022/12/02 09:53:05;;;;;;;25.70;15.10;;;;;;;6.80;58.39;95415.59;4969209;28;20077;-82
2022/12/02 09:55:31;;;;;;;30.25;14.88;;;;;;;6.76;58.17;95401.19;4968686;28;20055;-82
2022/12/02 09:58:00;;;;;;;26.80;14.32;;;;;;;6.91;57.67;95413.56;4952889;28;20512;-82
2022/12/02 10:00:26;;;;;;;28.00;16.10;;;;;;;6.92;57.82;95417.84;4969144;28;20118;-82
2022/12/02 10:02:52;;;;;;;28.52;16.15;;;;;;;7.02;57.68;95415.47;4952752;28;20468;-82
2022/12/02 10:05:23;;;;;;;27.13;15.07;;;;;;;7.04;57.61;95416.59;4968777;28;20037;-82
2022/12/02 10:07:49;;;;;;;27.25;14.88;;;;;;;7.06;57.56;95413.47;4968838;28;20521;-83
2022/12/02 10:10:17;;;;;;;27.30;15.07;;;;;;;6.99;57.88;95413.50;4968733;28;20031;-82
2022/12/02 10:12:43;;;;;;;29.00;16.88;;;;;;;7.06;57.77;95413.47;4968404;28;20513;-82
2022/12/02 10:15:12;;;;;;;26.63;16.35;;;;;;;7.09;58.13;95418.13;4973287;28;20026;-83
2022/12/02 10:17:38;;;;;;;27.40;17.25;;;;;;;7.09;58.02;95412.66;4980179;28;20022;-82
2022/12/02 10:20:04;;;;;;;25.25;16.50;;;;;;;7.11;58.08;95410.28;5001132;28;20490;-81
2022/12/02 10:22:30;;;;;;;28.77;16.05;;;;;;;7.19;57.62;95418.06;4953988;28;20097;-82
2022/12/02 10:24:55;;;;;;;25.88;15.88;;;;;;;7.23;57.76;95406.31;4968811;28;20030;-82
2022/12/02 10:27:26;;;;;;;26.48;15.63;;;;;;;7.23;57.88;95403.59;5001092;28;20019;-81
2022/12/02 10:29:51;;;;;;;29.73;16.15;;;;;;;7.31;57.22;95408.56;5002848;28;20093;-82
2022/12/02 10:32:26;;;;;;;25.73;15.95;;;;;;;7.41;56.86;95409.69;4956016;28;20034;-81
2022/12/02 10:35:10;;;;;;;26.30;16.20;;;;;;;7.39;57.41;95409.28;4972370;28;20030;-82
2022/12/02 10:37:36;;;;;;;24.38;14.95;;;;;;;7.43;57.46;95401.81;4989891;28;20069;-82
2022/12/02 10:40:15;;;;;;;26.20;14.77;;;;;;;7.38;57.40;95397.56;4993989;28;20531;-81
2022/12/02 10:42:42;;;;;;;26.52;14.65;;;;;;;7.48;57.23;95406.88;4972746;28;20049;-81
2022/12/02 10:45:18;;;;;;;24.10;14.35;;;;;;;7.52;57.25;95407.63;4972699;28;20113;-81
2022/12/02 10:47:44;;;;;;;26.40;15.10;;;;;;;7.57;57.21;95407.19;4971747;28;20058;-81
2022/12/02 10:50:23;;;;;;;27.38;16.02;;;;;;;7.61;57.08;95405.16;4955546;28;20046;-81
2022/12/02 10:52:54;;;;;;;32.55;18.52;;;;;;;7.66;56.93;95403.94;4955532;28;20046;-81
2022/12/02 10:55:19;;;;;;;31.33;17.73;;;;;;;7.67;56.77;95400.81;4971924;28;20050;-81
2022/12/02 10:57:45;;;;;;;26.25;16.40;;;;;;;7.69;56.79;95392.97;4955542;28;20078;-82
2022/12/02 11:00:17;;;;;;;31.02;18.40;;;;;;;7.67;56.77;95403.53;4971612;28;20023;-82
2022/12/02 11:02:52;;;;;;;26.17;16.73;;;;;;;7.70;56.67;95401.97;4971420;28;20092;-81
2022/12/02 11:05:31;;;;;;;26.08;16.38;;;;;;;7.68;57.01;95404.31;4972005;28;20473;-81
2022/12/02 11:08:03;;;;;;;32.70;15.93;;;;;;;7.69;56.89;95403.16;4971529;28;20026;-82
2022/12/02 11:10:35;;;;;;;28.05;14.88;;;;;;;7.64;57.58;95409.06;4971329;28;20034;-83
2022/12/02 11:13:11;;;;;;;28.25;15.73;;;;;;;7.64;57.74;95409.84;4971041;28;20034;-81
2022/12/02 11:15:41;;;;;;;31.23;17.55;;;;;;;7.65;57.56;95411.38;4972363;28;20034;-82
2022/12/02 11:18:08;;;;;;;28.88;17.42;;;;;;;7.65;57.55;95416.09;4971374;28;20053;-81
2022/12/02 11:20:39;;;;;;;28.50;15.27;;;;;;;7.64;57.74;95415.31;4971184;28;20043;-81
2022/12/02 11:23:07;;;;;;;30.38;16.38;;;;;;;7.60;58.21;95413.78;4971414;28;20500;-82
2022/12/02 11:25:42;;;;;;;23.05;14.32;;;;;;;7.62;57.85;95416.88;4988681;28;20137;-82
2022/12/02 11:28:16;;;;;;;25.92;15.88;;;;;;;7.59;57.85;95414.97;4988167;28;20317;-81
2022/12/02 11:30:42;;;;;;;24.52;14.55;;;;;;;7.55;57.68;95417.72;4988078;28;20112;-81
2022/12/02 11:33:11;;;;;;;28.25;16.20;;;;;;;7.55;57.64;95417.72;4970897;28;20433;-80
2022/12/02 11:36:10;;;;;;;27.10;15.23;;;;;;;7.53;58.05;95420.09;4954731;28;20038;-81
2022/12/02 11:38:46;;;;;;;27.80;15.20;;;;;;;7.52;57.87;95429.50;4970785;28;20034;-82